METAR Formatted Surface Weather Observation
Issued by NWS

Home | Current Version | Previous Version | Text Only | Print | Product List | Glossary On
Versions: 1 2
000
SAUS45 KTWC 291753
MTRSAD
METAR KSAD 291751Z AUTO 16011G21KT 10SM CLR 32/06 A2998 RMK AO2
SLP098 T03220056 10328 20194 58009



USA.gov is the U.S. government's official web portal to all federal, state and local government web resources and services.